createdAt,value
2023-04-22T00:01:02.416Z,19.83
2023-04-22T00:03:29.303Z,14.23
2023-04-22T00:05:56.268Z,18.33
2023-04-22T00:08:22.844Z,25.75
2023-04-22T00:10:49.675Z,16.27
2023-04-22T00:13:16.218Z,17.67
2023-04-22T00:15:42.909Z,17.05
2023-04-22T00:18:13.673Z,16.92
2023-04-22T00:20:43.633Z,16.92
2023-04-22T00:23:11.472Z,14.82
2023-04-22T00:25:39.478Z,15.38
2023-04-22T00:28:06.641Z,16.73
2023-04-22T00:30:33.350Z,17.83
2023-04-22T00:32:59.931Z,16.38
2023-04-22T00:35:26.580Z,17.05
2023-04-22T00:37:53.695Z,15.80
2023-04-22T00:40:20.468Z,16.00
2023-04-22T00:42:50.342Z,14.70
2023-04-22T00:45:18.119Z,16.67
2023-04-22T00:47:45.894Z,16.35
2023-04-22T00:50:12.881Z,17.58
2023-04-22T00:52:39.549Z,18.17
2023-04-22T00:55:06.785Z,23.63
2023-04-22T00:57:35.552Z,17.42
2023-04-22T01:00:02.743Z,18.83
2023-04-22T01:02:29.778Z,20.17
2023-04-22T01:04:56.437Z,16.15
2023-04-22T01:07:23.782Z,19.23
2023-04-22T01:09:50.926Z,13.85
2023-04-22T01:12:17.491Z,15.15
2023-04-22T01:14:44.091Z,17.20
2023-04-22T01:17:12.251Z,15.45
2023-04-22T01:19:39.130Z,19.42
2023-04-22T01:22:08.187Z,17.80
2023-04-22T01:24:35.325Z,16.13
2023-04-22T01:27:02.202Z,18.52
2023-04-22T01:29:28.993Z,16.92
2023-04-22T01:31:56.344Z,14.13
2023-04-22T01:34:23.120Z,14.18
2023-04-22T01:36:50.761Z,18.33
2023-04-22T01:39:18.211Z,19.63
2023-04-22T01:41:44.899Z,18.33
2023-04-22T01:44:11.504Z,14.18
2023-04-22T01:46:38.123Z,21.60
2023-04-22T01:49:04.707Z,17.80
2023-04-22T01:51:31.597Z,18.83
2023-04-22T01:53:58.196Z,19.85
2023-04-22T01:56:24.769Z,23.20
2023-04-22T01:58:51.357Z,20.08
2023-04-22T02:01:18.186Z,20.42
2023-04-22T02:03:44.768Z,19.98
2023-04-22T02:06:11.430Z,17.52
2023-04-22T02:08:38.252Z,21.63
2023-04-22T02:11:05.178Z,20.13
2023-04-22T02:13:36.705Z,20.63
2023-04-22T02:16:03.628Z,19.02
2023-04-22T02:18:30.657Z,20.40
2023-04-22T02:20:57.387Z,22.15
2023-04-22T02:23:24.705Z,20.20
2023-04-22T02:25:52.212Z,22.30
2023-04-22T02:28:19.346Z,21.40
2023-04-22T02:30:46.643Z,23.27
2023-04-22T02:33:13.298Z,21.90
2023-04-22T02:35:39.952Z,23.75
2023-04-22T02:38:06.604Z,21.80
2023-04-22T02:40:33.233Z,20.33
2023-04-22T02:43:00.565Z,19.63
2023-04-22T02:45:27.177Z,23.80
2023-04-22T02:47:53.833Z,21.80
2023-04-22T02:50:20.805Z,23.38
2023-04-22T02:52:47.410Z,23.13
2023-04-22T02:55:14.406Z,24.02
2023-04-22T02:57:40.966Z,24.95
2023-04-22T03:00:08.500Z,26.92
2023-04-22T03:02:35.419Z,25.65
2023-04-22T03:05:02.632Z,30.15
2023-04-22T03:07:29.409Z,26.30
2023-04-22T03:09:56.067Z,28.63
2023-04-22T03:12:22.722Z,29.02
2023-04-22T03:14:49.321Z,28.40
2023-04-22T03:17:15.945Z,27.15
2023-04-22T03:19:42.801Z,27.58
2023-04-22T03:22:09.608Z,27.92
2023-04-22T03:24:36.149Z,31.13
2023-04-22T03:27:03.890Z,26.20
2023-04-22T03:29:30.466Z,29.35
2023-04-22T03:31:57.023Z,23.08
2023-04-22T03:34:23.588Z,28.65
2023-04-22T03:36:50.229Z,29.10
2023-04-22T03:39:16.755Z,26.30
2023-04-22T03:41:43.387Z,26.48
2023-04-22T03:44:10.501Z,30.90
2023-04-22T03:46:37.018Z,31.13
2023-04-22T03:49:04.221Z,30.02
2023-04-22T03:51:30.766Z,25.02
2023-04-22T03:53:57.281Z,25.27
2023-04-22T03:56:24.497Z,27.20
2023-04-22T03:58:51.253Z,29.38
2023-04-22T04:01:17.947Z,30.15
2023-04-22T04:03:44.742Z,27.58
2023-04-22T04:06:11.431Z,29.85
2023-04-22T04:08:38.012Z,27.05
2023-04-22T04:11:04.659Z,28.77
2023-04-22T04:13:32.311Z,28.20
2023-04-22T04:16:00.136Z,42.15
2023-04-22T04:18:27.625Z,37.58
2023-04-22T04:20:54.282Z,35.25
2023-04-22T04:23:20.786Z,40.65
2023-04-22T04:25:47.672Z,33.05
2023-04-22T04:28:14.255Z,40.85
2023-04-22T04:30:41.721Z,40.83
2023-04-22T04:33:08.395Z,34.33
2023-04-22T04:35:36.150Z,32.28
2023-04-22T04:38:02.801Z,28.63
2023-04-22T04:40:30.500Z,29.05
2023-04-22T04:43:02.331Z,31.10
2023-04-22T04:45:29.749Z,33.03
2023-04-22T04:47:56.369Z,35.63
2023-04-22T04:50:22.980Z,32.13
2023-04-22T04:52:49.906Z,35.00
2023-04-22T04:55:17.213Z,35.38
2023-04-22T04:57:47.209Z,33.13
2023-04-22T05:00:14.127Z,32.53
2023-04-22T05:02:41.347Z,33.17
2023-04-22T05:05:08.819Z,33.10
2023-04-22T05:07:35.752Z,30.73
2023-04-22T05:10:03.543Z,33.10
2023-04-22T05:12:30.244Z,33.33
2023-04-22T05:14:56.818Z,33.35
2023-04-22T05:17:23.448Z,31.30
2023-04-22T05:19:50.161Z,27.75
2023-04-22T05:22:17.864Z,25.40
2023-04-22T05:24:44.424Z,28.63
2023-04-22T05:27:11.062Z,25.58
2023-04-22T05:29:38.018Z,27.60
2023-04-22T05:32:05.063Z,22.92
2023-04-22T05:34:31.693Z,27.48
2023-04-22T05:36:58.249Z,24.55
2023-04-22T05:39:24.790Z,27.45
2023-04-22T05:41:51.387Z,27.30
2023-04-22T05:44:18.026Z,20.98
2023-04-22T05:46:44.686Z,22.52
2023-04-22T05:49:11.232Z,28.52
2023-04-22T05:51:37.938Z,25.98
2023-04-22T05:54:04.597Z,30.25
2023-04-22T05:56:31.275Z,23.75
2023-04-22T05:58:57.817Z,22.95
2023-04-22T06:01:24.793Z,23.98
2023-04-22T06:03:51.448Z,26.42
2023-04-22T06:06:18.750Z,26.15
2023-04-22T06:08:45.493Z,25.63
2023-04-22T06:11:12.056Z,24.08
2023-04-22T06:13:38.737Z,23.08
2023-04-22T06:18:38.492Z,26.85
2023-04-22T06:21:05.484Z,26.83
2023-04-22T06:23:32.092Z,23.88
2023-04-22T06:25:58.666Z,26.35
2023-04-22T06:28:25.468Z,23.52
2023-04-22T06:30:52.072Z,27.35
2023-04-22T06:33:18.602Z,24.02
2023-04-22T06:35:45.584Z,23.30
2023-04-22T06:38:12.412Z,23.42
2023-04-22T06:40:39.049Z,23.00
2023-04-22T06:43:05.624Z,23.05
2023-04-22T06:45:32.181Z,24.33
2023-04-22T06:47:58.812Z,23.13
2023-04-22T06:50:25.680Z,24.85
2023-04-22T06:52:52.233Z,23.88
2023-04-22T06:55:18.963Z,21.45
2023-04-22T06:57:45.553Z,21.95
2023-04-22T07:00:12.968Z,21.60
2023-04-22T07:02:39.585Z,23.08
2023-04-22T07:05:06.440Z,20.30
2023-04-22T07:07:33.057Z,20.08
2023-04-22T07:09:59.845Z,20.98
2023-04-22T07:12:26.665Z,19.95
2023-04-22T07:14:53.392Z,19.63
2023-04-22T07:17:22.314Z,19.63
2023-04-22T07:19:49.422Z,20.05
2023-04-22T07:22:16.024Z,20.08
2023-04-22T07:24:42.631Z,20.73
2023-04-22T07:27:09.241Z,20.02
2023-04-22T07:29:36.034Z,20.40
2023-04-22T07:32:02.744Z,17.88
2023-04-22T07:34:29.414Z,17.95
2023-04-22T07:36:56.014Z,18.17
2023-04-22T07:39:22.942Z,17.13
2023-04-22T07:41:49.604Z,17.30
2023-04-22T07:44:21.226Z,16.15
2023-04-22T07:46:48.575Z,17.85
2023-04-22T07:49:16.726Z,15.50
2023-04-22T07:51:46.275Z,16.48
2023-04-22T07:54:13.133Z,17.17
2023-04-22T07:56:39.846Z,15.35
2023-04-22T07:59:06.453Z,22.90
2023-04-22T08:01:33.311Z,16.73
2023-04-22T08:04:00.479Z,16.67
2023-04-22T08:06:28.173Z,14.70
2023-04-22T08:08:55.243Z,14.68
2023-04-22T08:11:21.924Z,14.60
2023-04-22T08:13:48.711Z,16.00
2023-04-22T08:16:15.385Z,13.38
2023-04-22T08:18:41.940Z,14.70
2023-04-22T08:21:08.512Z,14.35
2023-04-22T08:23:35.057Z,14.02
2023-04-22T08:26:01.757Z,12.55
2023-04-22T08:28:28.333Z,10.70
2023-04-22T08:30:55.061Z,13.25
2023-04-22T08:33:21.684Z,12.48
2023-04-22T08:35:48.436Z,12.68
2023-04-22T08:38:15.593Z,11.43
2023-04-22T08:40:42.371Z,12.15
2023-04-22T08:43:09.314Z,11.80
2023-04-22T08:45:39.266Z,12.07
2023-04-22T08:48:07.930Z,8.75
2023-04-22T08:50:37.014Z,9.60
2023-04-22T08:53:03.573Z,9.52
2023-04-22T08:55:30.977Z,9.68
2023-04-22T08:58:00.334Z,9.95
2023-04-22T09:00:27.278Z,10.88
2023-04-22T09:02:54.564Z,9.88
2023-04-22T09:05:24.073Z,9.63
2023-04-22T09:07:51.871Z,9.95
2023-04-22T09:10:18.571Z,10.88
2023-04-22T09:12:46.488Z,11.18
2023-04-22T09:15:13.038Z,11.10
2023-04-22T09:17:39.810Z,11.35
2023-04-22T09:20:08.634Z,12.60
2023-04-22T09:22:44.091Z,11.80
2023-04-22T09:25:25.277Z,11.73
2023-04-22T09:27:54.238Z,10.75
2023-04-22T09:30:29.392Z,10.85
2023-04-22T09:33:01.844Z,10.75
2023-04-22T09:35:30.030Z,10.10
2023-04-22T09:37:58.010Z,10.35
2023-04-22T09:40:25.540Z,9.85
2023-04-22T09:42:54.027Z,8.77
2023-04-22T09:45:32.087Z,9.03
2023-04-22T09:48:14.740Z,8.90
2023-04-22T09:50:50.519Z,9.18
2023-04-22T09:53:19.760Z,10.27
2023-04-22T09:55:50.260Z,11.63
2023-04-22T09:58:18.709Z,11.10
2023-04-22T10:00:57.008Z,11.60
2023-04-22T10:03:23.944Z,10.60
2023-04-22T10:05:50.997Z,11.77
2023-04-22T10:08:17.574Z,11.35
2023-04-22T10:10:45.147Z,11.57
2023-04-22T10:13:11.846Z,21.05
2023-04-22T10:15:44.182Z,270.27
2023-04-22T10:18:14.336Z,253.02
2023-04-22T10:20:43.094Z,103.15
2023-04-22T10:23:15.908Z,17.60
2023-04-22T10:25:42.466Z,54.65
2023-04-22T10:28:10.725Z,16.40
2023-04-22T10:30:39.616Z,25.10
2023-04-22T10:33:34.604Z,14.82
2023-04-22T10:36:14.307Z,19.98
2023-04-22T10:38:49.741Z,25.48
2023-04-22T10:41:22.227Z,35.30
2023-04-22T10:43:58.359Z,13.23
2023-04-22T10:46:40.256Z,15.00
2023-04-22T10:49:17.767Z,12.38
2023-04-22T10:51:52.290Z,14.30
2023-04-22T10:54:30.608Z,17.67
2023-04-22T10:57:05.857Z,10.95
2023-04-22T10:59:33.921Z,13.35
2023-04-22T11:02:08.044Z,17.45
2023-04-22T11:04:35.077Z,8.90
2023-04-22T11:07:22.728Z,10.70
2023-04-22T11:09:59.282Z,9.93
2023-04-22T11:12:38.299Z,8.10
2023-04-22T11:15:13.623Z,6.53
2023-04-22T11:17:43.567Z,7.72
2023-04-22T11:20:12.634Z,6.07
2023-04-22T11:22:45.523Z,7.57
2023-04-22T11:25:12.228Z,5.85
2023-04-22T11:27:40.382Z,4.60
2023-04-22T11:30:08.800Z,6.25
2023-04-22T11:32:37.138Z,5.50
2023-04-22T11:35:06.171Z,4.45
2023-04-22T11:37:41.184Z,6.95
2023-04-22T11:40:28.239Z,5.35
2023-04-22T11:42:58.309Z,5.07
2023-04-22T11:45:25.258Z,5.40
2023-04-22T11:47:52.551Z,5.60
2023-04-22T11:50:23.354Z,4.00
2023-04-22T11:52:55.901Z,6.03
2023-04-22T11:55:30.525Z,7.82
2023-04-22T11:58:09.691Z,3.95
2023-04-22T12:00:40.367Z,13.00
2023-04-22T12:03:16.718Z,4.63
2023-04-22T12:05:51.405Z,7.38
2023-04-22T12:08:22.430Z,5.10
2023-04-22T12:10:54.977Z,6.25
2023-04-22T12:13:41.787Z,4.93
2023-04-22T12:16:13.562Z,7.95
2023-04-22T12:18:54.781Z,4.15
2023-04-22T12:21:24.445Z,7.50
2023-04-22T12:23:54.018Z,19.75
2023-04-22T12:26:26.597Z,4.40
2023-04-22T12:28:59.650Z,6.70
2023-04-22T12:31:27.819Z,5.88
2023-04-22T12:33:54.911Z,5.72
2023-04-22T12:36:21.740Z,6.53
2023-04-22T12:38:49.151Z,4.25
2023-04-22T12:41:16.408Z,5.13
2023-04-22T12:43:43.088Z,4.28
2023-04-22T12:46:10.353Z,5.20
2023-04-22T12:48:37.336Z,6.90
2023-04-22T12:51:04.789Z,4.47
2023-04-22T12:53:31.482Z,4.40
2023-04-22T12:55:58.768Z,5.82
2023-04-22T12:58:26.646Z,5.10
2023-04-22T13:00:53.240Z,4.63
2023-04-22T13:03:19.917Z,3.58
2023-04-22T13:05:46.640Z,4.13
2023-04-22T13:08:13.209Z,7.97
2023-04-22T13:10:39.818Z,5.97
2023-04-22T13:13:16.890Z,3.90
2023-04-22T13:15:53.869Z,5.07
2023-04-22T13:18:22.790Z,4.68
2023-04-22T13:20:49.383Z,4.30
2023-04-22T13:23:16.881Z,9.35
2023-04-22T13:25:43.736Z,3.83
2023-04-22T13:28:11.280Z,2.85
2023-04-22T13:30:37.966Z,4.47
2023-04-22T13:33:04.543Z,3.40
2023-04-22T13:35:31.504Z,3.83
2023-04-22T13:37:58.223Z,4.65
2023-04-22T13:40:26.573Z,4.57
2023-04-22T13:42:53.696Z,7.00
2023-04-22T13:45:20.318Z,3.40
2023-04-22T13:47:46.936Z,4.35
2023-04-22T13:50:13.561Z,3.42
2023-04-22T13:52:40.133Z,6.57
2023-04-22T13:55:07.197Z,7.03
2023-04-22T13:57:33.820Z,6.30
2023-04-22T14:00:00.562Z,4.38
2023-04-22T14:02:27.305Z,4.57
2023-04-22T14:04:54.012Z,3.60
2023-04-22T14:07:20.609Z,3.75
2023-04-22T14:09:47.146Z,6.38
2023-04-22T14:12:13.857Z,5.38
2023-04-22T14:14:40.462Z,3.75
2023-04-22T14:17:07.224Z,3.80
2023-04-22T14:19:34.042Z,5.40
2023-04-22T14:22:00.606Z,4.47
2023-04-22T14:24:27.131Z,4.00
2023-04-22T14:26:54.598Z,4.57
2023-04-22T14:29:21.492Z,3.65
2023-04-22T14:31:49.666Z,4.30
2023-04-22T14:34:16.422Z,4.93
2023-04-22T14:36:43.824Z,6.10
2023-04-22T14:39:10.350Z,3.20
2023-04-22T14:41:36.939Z,3.85
2023-04-22T14:44:03.472Z,7.47
2023-04-22T14:46:30.432Z,5.25
2023-04-22T14:48:57.122Z,3.72
2023-04-22T14:51:23.760Z,4.50
2023-04-22T14:53:50.312Z,3.75
2023-04-22T14:56:17.056Z,5.85
2023-04-22T14:58:43.604Z,7.78
2023-04-22T15:01:10.326Z,7.22
2023-04-22T15:03:37.155Z,21.38
2023-04-22T15:06:04.110Z,6.45
2023-04-22T15:08:30.840Z,5.05
2023-04-22T15:10:59.456Z,6.70
2023-04-22T15:13:26.062Z,5.25
2023-04-22T15:15:52.697Z,5.25
2023-04-22T15:18:19.326Z,6.57
2023-04-22T15:20:45.901Z,7.97
2023-04-22T15:23:12.806Z,4.22
2023-04-22T15:25:39.473Z,4.63
2023-04-22T15:28:06.114Z,6.30
2023-04-22T15:30:32.703Z,7.30
2023-04-22T15:32:59.349Z,5.60
2023-04-22T15:35:26.123Z,6.10
2023-04-22T15:37:52.883Z,3.40
2023-04-22T15:40:19.613Z,4.93
2023-04-22T15:42:46.278Z,4.55
2023-04-22T15:45:12.896Z,5.13
2023-04-22T15:47:41.131Z,4.53
2023-04-22T15:50:09.914Z,3.38
2023-04-22T15:52:37.538Z,3.45
2023-04-22T15:55:05.536Z,3.33
2023-04-22T15:57:34.491Z,2.40
2023-04-22T16:00:11.921Z,2.97
2023-04-22T16:02:40.899Z,4.63
2023-04-22T16:05:07.916Z,5.00
2023-04-22T16:07:34.929Z,3.05
2023-04-22T16:10:01.876Z,5.57
2023-04-22T16:12:28.460Z,5.20
2023-04-22T16:14:55.068Z,4.35
2023-04-22T16:17:21.674Z,7.30
2023-04-22T16:19:48.739Z,3.88
2023-04-22T16:22:15.391Z,5.35
2023-04-22T16:24:43.973Z,3.08
2023-04-22T16:27:15.959Z,4.78
2023-04-22T16:29:42.708Z,7.82
2023-04-22T16:32:09.925Z,4.53
2023-04-22T16:34:36.883Z,3.58
2023-04-22T16:37:04.165Z,3.72
2023-04-22T16:39:31.117Z,4.40
2023-04-22T16:41:58.539Z,4.82
2023-04-22T16:44:25.125Z,4.13
2023-04-22T16:46:51.643Z,5.82
2023-04-22T16:49:18.257Z,3.33
2023-04-22T16:51:44.934Z,3.85
2023-04-22T16:54:11.536Z,5.70
2023-04-22T16:56:38.074Z,6.93
2023-04-22T16:59:04.715Z,4.72
2023-04-22T17:01:31.416Z,5.03
2023-04-22T17:03:58.310Z,6.72
2023-04-22T17:06:25.008Z,3.90
2023-04-22T17:08:52.489Z,6.78
2023-04-22T17:11:19.390Z,6.50
2023-04-22T17:13:45.937Z,5.82
2023-04-22T17:16:12.603Z,5.43
2023-04-22T17:18:39.237Z,7.63
2023-04-22T17:21:06.126Z,5.57
2023-04-22T17:23:32.679Z,5.22
2023-04-22T17:25:59.895Z,7.88
2023-04-22T17:28:26.581Z,8.80
2023-04-22T17:30:53.438Z,5.13
2023-04-22T17:33:20.120Z,5.95
2023-04-22T17:35:46.670Z,7.18
2023-04-22T17:38:14.062Z,6.00
2023-04-22T17:40:40.806Z,5.85
2023-04-22T17:43:07.320Z,5.82
2023-04-22T17:45:34.128Z,5.47
2023-04-22T17:48:00.783Z,6.15
2023-04-22T17:50:27.457Z,5.72
2023-04-22T17:52:54.405Z,6.82
2023-04-22T17:55:20.987Z,4.70
2023-04-22T17:57:47.548Z,7.68
2023-04-22T18:00:14.638Z,6.50
2023-04-22T18:02:42.054Z,5.95
2023-04-22T18:05:09.718Z,5.80
2023-04-22T18:07:36.586Z,5.88
2023-04-22T18:10:03.220Z,5.82
2023-04-22T18:12:30.845Z,6.07
2023-04-22T18:14:58.655Z,5.13
2023-04-22T18:17:25.264Z,6.43
2023-04-22T18:20:02.780Z,7.65
2023-04-22T18:25:01.973Z,4.15
2023-04-22T18:27:28.894Z,4.85
2023-04-22T18:29:55.620Z,7.70
2023-04-22T18:32:22.379Z,8.98
2023-04-22T18:34:49.016Z,6.40
2023-04-22T18:37:15.612Z,6.68
2023-04-22T18:39:42.234Z,7.10
2023-04-22T18:42:08.923Z,8.15
2023-04-22T18:44:35.692Z,9.20
2023-04-22T18:47:02.246Z,6.35
2023-04-22T18:49:28.840Z,8.48
2023-04-22T18:51:57.277Z,7.40
2023-04-22T18:54:23.986Z,8.73
2023-04-22T18:56:51.263Z,6.63
2023-04-22T18:59:17.823Z,7.75
2023-04-22T19:01:44.567Z,7.57
2023-04-22T19:04:11.851Z,13.02
2023-04-22T19:06:38.489Z,11.02
2023-04-22T19:09:05.009Z,7.88
2023-04-22T19:11:31.586Z,8.77
2023-04-22T19:13:58.721Z,8.57
2023-04-22T19:16:26.522Z,10.07
2023-04-22T19:18:53.606Z,10.32
2023-04-22T19:21:20.313Z,9.18
2023-04-22T19:23:47.199Z,10.93
2023-04-22T19:26:14.035Z,9.40
2023-04-22T19:28:46.837Z,7.32
2023-04-22T19:31:14.667Z,11.48
2023-04-22T19:33:41.633Z,8.07
2023-04-22T19:36:08.227Z,7.75
2023-04-22T19:38:35.121Z,5.95
2023-04-22T19:41:02.223Z,7.10
2023-04-22T19:43:29.125Z,5.35
2023-04-22T19:45:55.758Z,6.47
2023-04-22T19:48:23.580Z,5.65
2023-04-22T19:50:50.232Z,5.47
2023-04-22T19:53:18.299Z,13.50
2023-04-22T19:55:46.447Z,10.70
2023-04-22T19:58:13.817Z,10.38
2023-04-22T20:00:40.683Z,10.50
2023-04-22T20:03:08.117Z,14.32
2023-04-22T20:05:35.481Z,6.43
2023-04-22T20:08:03.065Z,7.38
2023-04-22T20:10:30.558Z,5.70
2023-04-22T20:12:57.619Z,8.98
2023-04-22T20:15:24.335Z,12.82
2023-04-22T20:17:51.528Z,10.15
2023-04-22T20:20:18.908Z,9.75
2023-04-22T20:22:46.181Z,6.80
2023-04-22T20:25:15.361Z,7.15
2023-04-22T20:27:42.788Z,7.28
2023-04-22T20:30:10.803Z,6.57
2023-04-22T20:32:37.555Z,5.78
2023-04-22T20:35:06.399Z,5.75
2023-04-22T20:37:35.883Z,7.88
2023-04-22T20:40:05.610Z,7.22
2023-04-22T20:42:36.659Z,11.50
2023-04-22T20:47:33.291Z,11.77
2023-04-22T20:49:59.871Z,8.63
2023-04-22T20:52:26.542Z,5.95
2023-04-22T20:54:56.394Z,5.07
2023-04-22T20:57:23.576Z,4.93
2023-04-22T20:59:50.467Z,7.45
2023-04-22T21:02:18.166Z,5.70
2023-04-22T21:04:45.336Z,7.35
2023-04-22T21:07:14.031Z,18.35
2023-04-22T21:09:41.524Z,19.77
2023-04-22T21:12:10.391Z,19.55
2023-04-22T21:14:40.947Z,8.95
2023-04-22T21:17:19.189Z,10.50
2023-04-22T21:19:49.501Z,9.35
2023-04-22T21:22:21.079Z,9.90
2023-04-22T21:24:52.056Z,11.48
2023-04-22T21:29:49.398Z,9.73
2023-04-22T21:32:16.799Z,8.43
2023-04-22T21:34:44.178Z,9.82
2023-04-22T21:37:11.558Z,6.75
2023-04-22T21:39:38.235Z,8.95
2023-04-22T21:42:07.737Z,6.75
2023-04-22T21:44:37.137Z,10.02
2023-04-22T21:47:04.487Z,8.75
2023-04-22T21:49:31.494Z,9.25
2023-04-22T21:51:58.701Z,12.23
2023-04-22T21:54:25.402Z,8.70
2023-04-22T21:56:52.006Z,11.82
2023-04-22T21:59:18.633Z,7.10
2023-04-22T22:01:45.671Z,7.05
2023-04-22T22:04:15.418Z,7.18
2023-04-22T22:06:44.601Z,9.88
2023-04-22T22:09:12.024Z,6.97
2023-04-22T22:11:38.558Z,7.68
2023-04-22T22:14:05.224Z,7.22
2023-04-22T22:16:31.910Z,7.40
2023-04-22T22:18:58.500Z,8.27
2023-04-22T22:21:25.342Z,7.60
2023-04-22T22:23:52.198Z,9.48
2023-04-22T22:26:19.312Z,6.00
2023-04-22T22:28:46.134Z,6.65
2023-04-22T22:31:12.763Z,8.52
2023-04-22T22:33:39.304Z,9.00
2023-04-22T22:36:06.137Z,7.18
2023-04-22T22:38:32.727Z,4.72
2023-04-22T22:40:59.320Z,8.02
2023-04-22T22:43:25.861Z,8.20
2023-04-22T22:45:52.758Z,6.55
2023-04-22T22:48:19.474Z,5.93
2023-04-22T22:50:46.443Z,8.15
2023-04-22T22:53:13.042Z,6.25
2023-04-22T22:55:39.579Z,4.35
2023-04-22T22:58:06.102Z,6.38
2023-04-22T23:00:32.639Z,6.32
2023-04-22T23:02:59.572Z,7.40
2023-04-22T23:05:26.324Z,7.18
2023-04-22T23:07:52.874Z,6.57
2023-04-22T23:10:19.544Z,5.03
2023-04-22T23:12:46.235Z,5.50
2023-04-22T23:15:12.790Z,6.93
2023-04-22T23:17:39.749Z,6.05
2023-04-22T23:20:10.666Z,8.82
2023-04-22T23:22:41.542Z,10.30
2023-04-22T23:25:09.266Z,5.07
2023-04-22T23:27:36.244Z,8.25
2023-04-22T23:30:04.584Z,11.77
2023-04-22T23:32:32.888Z,6.47
2023-04-22T23:35:01.559Z,7.10
2023-04-22T23:37:29.416Z,6.60
2023-04-22T23:39:57.556Z,5.72
2023-04-22T23:42:24.123Z,6.50
2023-04-22T23:44:50.670Z,5.22
2023-04-22T23:47:17.457Z,8.10
2023-04-22T23:49:44.134Z,6.25
2023-04-22T23:52:12.690Z,3.97
2023-04-22T23:54:40.334Z,7.57
2023-04-22T23:57:07.451Z,6.80
2023-04-22T23:59:34.243Z,5.32
